map of LEC home
LEC - Airport
Location
City:  Lençõis, Bahia, Brazil
Near (Alt.):Chapada Diamantina NP
Name:Coronel Horácio de Mattos Airport
ICAO:SBLE
IATA:LEC

Details
Type:Airport (Aerodrome, Airfield)
Use:Public/Civil
Latitude:12°28'56"S (-12.482221)
Longitude:41°16'37"W (-41.276943)
Elevation:1660 ft (506 m)
Variation:23.11°W (WMM2015 magnetic declination)
-0.04° annual change
Runways:1
Longest:6831 × 98 ft (2082 × 30 m), paved

Time
Time Zone:UTC-3
Local Time:

Weather
METAR:SBLE 181300Z 03008KT 9999 OVC025 26/18 Q1018

Related Locations
Nearby:
Farthest:ULI: 12248 mi / 19712 km
Falalop Island [Ulithi Civil Airfield], Ulithi Atoll, YAP, FM

Find:

   beyond  
but within

Other Information
Maps:
NOTAMs:
Links:
Sources:

  
  • flag of Brazil
  • flag of Bahia
  

Sectional Chart

Flight Planning
at skyvector.com

Satellite Image

Google Maps Satellite view

 

Copyright © 2004-2018 Karl L. Swartz. All rights reserved.
The Great Circle Mapper name and logo are trademarks of the Great Circle Mapper.
All other trademarks mentioned herein belong to their respective owners.
Please see credits for attibutions and further copyright information.

  Follow gcmap on Facebook Follow gcmap on Twitter Follow gcmap on Google+ GCmap on LinkedIn

hCard Microformat

Geo Microformat